createdAt,value
2023-03-24T06:30:19.463Z,10.61
2023-03-24T06:33:25.877Z,10.74
2023-03-24T06:39:45.722Z,11.00
2023-03-24T07:01:35.299Z,11.39
2023-03-24T07:07:12.581Z,11.56
2023-03-24T07:10:21.979Z,11.72
2023-03-24T07:13:24.566Z,11.83
2023-03-24T07:16:27.029Z,11.87
2023-03-24T07:24:05.978Z,12.02
2023-03-24T07:27:09.146Z,12.20
2023-03-24T07:30:12.134Z,12.37
2023-03-24T07:33:14.580Z,12.70
2023-03-24T07:36:17.204Z,12.98
2023-03-24T07:39:22.032Z,13.44
2023-03-24T07:42:25.176Z,13.96
2023-03-24T07:45:28.391Z,14.26
2023-03-24T07:48:30.981Z,14.31
2023-03-24T07:51:37.054Z,13.83
2023-03-24T07:54:42.684Z,13.47
2023-03-24T07:57:48.595Z,13.30
2023-03-24T08:00:51.436Z,13.06
2023-03-24T08:03:56.155Z,12.83
2023-03-24T08:06:58.735Z,12.72
2023-03-24T08:10:02.594Z,12.66
2023-03-24T08:13:05.175Z,12.61
2023-03-24T08:16:09.045Z,12.65
2023-03-24T08:19:11.505Z,12.60
2023-03-24T08:22:13.930Z,12.59
2023-03-24T08:25:19.409Z,12.51
2023-03-24T08:28:22.188Z,12.54
2023-03-24T08:31:24.693Z,12.59
2023-03-24T08:34:27.439Z,12.51
2023-03-24T08:37:29.849Z,12.47
2023-03-24T08:40:34.579Z,12.42
2023-03-24T08:43:38.096Z,12.40
2023-03-24T08:51:13.096Z,12.32
2023-03-24T08:54:15.678Z,12.38
2023-03-24T08:57:18.461Z,12.46
2023-03-24T09:00:22.733Z,12.51
2023-03-24T09:03:26.293Z,12.62
2023-03-24T09:06:32.859Z,12.78
2023-03-24T09:09:35.578Z,13.03
2023-03-24T09:12:40.822Z,13.03
2023-03-24T09:15:47.808Z,13.01
2023-03-24T09:18:53.074Z,13.04
2023-03-24T09:21:57.182Z,13.08
2023-03-24T09:24:59.856Z,13.18
2023-03-24T09:28:03.292Z,13.25
2023-03-24T09:31:07.308Z,13.34
2023-03-24T09:34:17.127Z,13.38
2023-03-24T09:37:21.498Z,13.58
2023-03-24T09:40:29.075Z,13.64
2023-03-24T09:43:41.564Z,13.75
2023-03-24T09:46:48.312Z,13.94
2023-03-24T09:49:53.363Z,13.98
2023-03-24T09:53:01.512Z,14.11
2023-03-24T09:56:12.249Z,14.00
2023-03-24T09:59:18.698Z,14.01
2023-03-24T10:02:23.053Z,14.51
2023-03-24T10:05:31.237Z,14.52
2023-03-24T10:08:37.492Z,14.35
2023-03-24T10:11:46.540Z,14.29
2023-03-24T10:14:59.191Z,14.34
2023-03-24T10:18:11.607Z,14.60
2023-03-24T10:21:20.335Z,14.64
2023-03-24T10:24:30.773Z,14.35
2023-03-24T10:27:38.551Z,14.10
2023-03-24T10:30:45.374Z,13.92
2023-03-24T10:33:48.777Z,14.13
2023-03-24T10:36:52.308Z,14.51
2023-03-24T10:39:56.112Z,15.07
2023-03-24T10:43:06.727Z,15.80
2023-03-24T10:46:13.639Z,15.89
2023-03-24T10:49:19.787Z,15.93
2023-03-24T10:52:24.504Z,16.37
2023-03-24T10:55:36.375Z,16.73
2023-03-24T10:58:40.910Z,16.02
2023-03-24T11:01:43.579Z,15.80
2023-03-24T11:04:51.871Z,15.75
2023-03-24T11:07:54.534Z,15.64
2023-03-24T11:10:58.311Z,15.53
2023-03-24T11:14:03.997Z,15.29
2023-03-24T11:17:13.248Z,15.32
2023-03-24T11:20:21.101Z,15.44
2023-03-24T11:23:29.636Z,16.04
2023-03-24T11:26:36.013Z,16.39
2023-03-24T11:29:40.913Z,16.36
2023-03-24T11:32:48.125Z,15.95
2023-03-24T11:36:02.986Z,15.79
2023-03-24T11:39:12.684Z,16.40
2023-03-24T11:42:18.398Z,17.09
2023-03-24T11:45:28.856Z,17.03
2023-03-24T11:48:40.523Z,16.10
2023-03-24T11:51:48.740Z,16.46
2023-03-24T11:54:51.284Z,16.09
2023-03-24T11:58:02.057Z,16.13
2023-03-24T12:01:08.731Z,16.41
2023-03-24T12:04:31.344Z,17.33
2023-03-24T12:07:47.681Z,17.29
2023-03-24T12:11:06.244Z,17.10
2023-03-24T12:14:12.434Z,17.01
2023-03-24T12:17:17.369Z,15.95
2023-03-24T12:20:25.068Z,16.03
2023-03-24T12:23:37.786Z,15.94
2023-03-24T12:26:40.765Z,16.16
2023-03-24T12:29:59.550Z,16.50
2023-03-24T12:33:19.951Z,16.56
2023-03-24T12:36:39.039Z,16.48
2023-03-24T12:39:49.154Z,15.80
2023-03-24T12:43:03.168Z,15.59
2023-03-24T12:46:18.170Z,15.45
2023-03-24T12:49:36.586Z,15.46
2023-03-24T12:52:58.092Z,15.29
2023-03-24T12:56:16.200Z,15.30
2023-03-24T12:59:26.257Z,15.59
2023-03-24T13:02:35.798Z,15.64
2023-03-24T13:05:45.046Z,15.33
2023-03-24T13:08:58.557Z,15.02
2023-03-24T13:12:04.885Z,14.87
2023-03-24T13:15:19.473Z,14.91
2023-03-24T13:18:30.785Z,15.12
2023-03-24T13:21:35.241Z,15.51
2023-03-24T13:24:38.365Z,16.06
2023-03-24T13:27:45.164Z,16.59
2023-03-24T13:30:48.471Z,16.67
2023-03-24T13:33:54.064Z,17.54
2023-03-24T13:37:01.509Z,17.26
2023-03-24T13:40:11.246Z,16.28
2023-03-24T13:43:19.306Z,16.11
2023-03-24T13:46:21.878Z,16.30
2023-03-24T13:49:25.714Z,16.23
2023-03-24T13:52:33.570Z,16.26
2023-03-24T13:55:39.223Z,16.38
2023-03-24T13:58:51.798Z,15.97
2023-03-24T14:02:22.158Z,15.43
2023-03-24T14:05:55.623Z,15.30
2023-03-24T14:09:06.127Z,15.06
2023-03-24T14:12:17.793Z,14.96
2023-03-24T14:15:31.084Z,14.82
2023-03-24T14:18:43.808Z,14.85
2023-03-24T14:21:53.510Z,14.84
2023-03-24T14:25:00.816Z,14.73
2023-03-24T14:28:22.093Z,14.64
2023-03-24T14:31:28.968Z,14.53
2023-03-24T14:34:33.213Z,14.38
2023-03-24T14:37:37.307Z,14.36
2023-03-24T14:40:42.965Z,14.33
2023-03-24T14:43:59.005Z,14.30
2023-03-24T14:47:01.684Z,14.41
2023-03-24T14:50:14.130Z,14.92
2023-03-24T14:53:21.638Z,15.28
2023-03-24T14:56:24.415Z,15.48
2023-03-24T14:59:36.600Z,16.20
2023-03-24T15:02:43.334Z,15.73
2023-03-24T15:05:45.976Z,15.23
2023-03-24T15:08:52.640Z,14.93
2023-03-24T15:12:01.292Z,14.73
2023-03-24T15:15:04.150Z,15.12
2023-03-24T15:18:06.578Z,15.84
2023-03-24T15:21:17.021Z,15.93
2023-03-24T15:24:30.013Z,15.48
2023-03-24T15:27:34.366Z,15.24
2023-03-24T15:30:37.091Z,15.33
2023-03-24T15:33:40.656Z,15.29
2023-03-24T15:36:44.972Z,15.28
2023-03-24T15:39:53.859Z,15.09
2023-03-24T15:43:01.593Z,15.01
2023-03-24T15:46:12.279Z,15.21
2023-03-24T15:49:26.346Z,14.99
2023-03-24T15:52:31.965Z,14.79
2023-03-24T15:55:37.261Z,14.74
2023-03-24T15:58:52.345Z,14.76
2023-03-24T16:01:55.044Z,14.69
2023-03-24T16:05:10.785Z,14.55
2023-03-24T16:08:27.378Z,14.57
2023-03-24T16:11:31.215Z,14.48
2023-03-24T16:14:35.579Z,14.33
2023-03-24T16:17:38.020Z,14.24
2023-03-24T16:20:40.559Z,14.14
2023-03-24T16:23:43.566Z,14.04
2023-03-24T16:26:48.349Z,14.00
2023-03-24T16:29:51.061Z,14.00
2023-03-24T16:32:53.539Z,13.89
2023-03-24T16:35:56.050Z,13.81
2023-03-24T16:39:00.460Z,13.74
2023-03-24T16:42:04.275Z,13.64
2023-03-24T16:45:07.772Z,13.52
2023-03-24T16:48:11.088Z,13.55
2023-03-24T16:51:15.841Z,13.55
2023-03-24T16:54:18.258Z,13.56
2023-03-24T16:57:21.997Z,13.40
2023-03-24T17:00:25.550Z,13.25
2023-03-24T17:03:29.653Z,13.14
2023-03-24T17:06:33.496Z,13.03
2023-03-24T17:09:38.576Z,12.87
2023-03-24T17:12:42.832Z,12.77
2023-03-24T17:15:45.396Z,12.59
2023-03-24T17:18:47.831Z,12.36
2023-03-24T17:21:55.060Z,12.23
2023-03-24T17:24:58.282Z,12.11
2023-03-24T17:28:02.050Z,12.03
2023-03-24T17:31:04.747Z,11.99
2023-03-24T17:34:20.771Z,11.83
2023-03-24T17:37:26.960Z,11.71
2023-03-24T17:40:29.557Z,11.61
2023-03-24T17:43:33.538Z,11.59
2023-03-24T17:46:36.034Z,11.62
2023-03-24T17:49:38.481Z,11.60
2023-03-24T17:52:43.992Z,11.53
2023-03-24T17:55:46.404Z,11.54
2023-03-24T17:58:54.515Z,11.48
2023-03-24T18:01:57.242Z,11.43
2023-03-24T18:04:59.691Z,11.38
2023-03-24T18:08:02.102Z,11.14
2023-03-24T18:11:06.597Z,11.07
2023-03-24T18:14:10.356Z,11.08
2023-03-24T18:17:13.292Z,11.21
2023-03-24T18:20:16.108Z,11.18
2023-03-24T18:23:18.695Z,11.30
2023-03-24T18:26:23.362Z,11.34
2023-03-24T18:29:27.212Z,11.15
2023-03-24T18:32:32.998Z,11.01
2023-03-24T18:35:35.576Z,10.98
